Isabella — 9HSL7 — position and weather

sailwx.info

Track history (hours):
 
Tides and Currents Weather Stations Pressure Air Temp Water Temp Dewpoint Dewpoint Depression Visibility Wind Speed Wind Dir Waves Ship Positions

Isabella

Last reported at 2014-Aug-01 03:32 UTC. Time now 2014-Aug-01 03:48 UTC.
Position N 54°27' E 018°53'.

Length 244 m; draft 15 m.

Type: Tanker. MMSI: 215545000.

Date/timePositionNaut miles runAvg speedWind from/ knotsBaromVisibWave heightAir tempDewpointWater temp
2014-Aug-01 03:32N 54°27' E 018°53'0 0.0
2014-Aug-01 02:32N 54°27' E 018°53'0 0.1
2014-Aug-01 01:32N 54°27' E 018°53'0 0.0
2014-Aug-01 00:32N 54°27' E 018°53'0 0.0
2014-Jul-31 23:32N 54°28' E 018°53'0 0.1
2014-Jul-31 22:32N 54°27' E 018°53'0 0.4
2014-Jul-31 21:33N 54°27' E 018°53'7 7.2
2014-Jul-31 20:33N 54°33' E 019°01'10 9.8
2014-Jul-31 19:33N 54°43' E 019°03'9 8.9
2014-Jul-31 18:33N 54°52' E 019°04'9 8.6
2014-Jul-31 17:33N 55°00' E 019°06'0 0.3
2014-Jul-31 16:33N 55°00' E 019°06'0 0.2
2014-Jul-31 15:33N 55°00' E 019°06'0 0.2
2014-Jul-31 14:33N 55°00' E 019°06'0 0.3
2014-Jul-31 13:33N 55°01' E 019°06'0 0.3
2014-Jul-31 12:33N 55°01' E 019°06'0 0.4
2014-Jul-31 11:29N 55°01' E 019°05'0 0.4
2014-Jul-31 10:33N 55°02' E 019°05'0 0.4
2014-Jul-31 09:33N 55°02' E 019°04'0 0.4
2014-Jul-31 08:33N 55°02' E 019°04'0 0.4
2014-Jul-31 07:33N 55°02' E 019°03'0 0.4
2014-Jul-31 06:33N 55°02' E 019°03'0 0.2
2014-Jul-31 05:33N 55°02' E 019°02'0 0.2
2014-Jul-31 04:26N 55°02' E 019°02'0 0.1
2014-Jul-31 03:33N 55°02' E 019°02'0 0.1
2014-Jul-31 02:33N 55°02' E 019°02'0 0.3
2014-Jul-31 01:33N 55°02' E 019°02'0 0.4
2014-Jul-31 00:33N 55°03' E 019°02'0 0.3
2014-Jul-30 23:33N 55°03' E 019°02'0 0.3
2014-Jul-30 22:33N 55°03' E 019°02'0 0.3
2014-Jul-30 21:33N 55°03' E 019°01'0 0.3
2014-Jul-30 20:33N 55°03' E 019°01'0 0.4
2014-Jul-30 19:33N 55°03' E 019°00'0 0.3
2014-Jul-30 18:33N 55°03' E 018°60'0 0.5
2014-Jul-30 17:33N 55°03' E 018°59'0 0.4
2014-Jul-30 16:33N 55°02' E 018°59'1 0.5
2014-Jul-30 15:33N 55°02' E 018°59'1 0.5
2014-Jul-30 14:33N 55°01' E 018°59'0 0.5
2014-Jul-30 13:33N 55°01' E 018°60'0 0.4
2014-Jul-30 12:33N 55°01' E 019°00'8 7.8
2014-Jul-30 11:33N 54°53' E 019°02'1010.2
2014-Jul-30 10:33N 55°03' E 018°59'2 1.8
2014-Jul-30 09:33N 55°05' E 018°59'6 5.8
2014-Jul-30 08:33N 55°11' E 018°58'7 7.4
2014-Jul-30 07:33N 55°18' E 018°56'0 0.2
2014-Jul-30 06:33N 55°18' E 018°56'0 0.3
2014-Jul-30 05:33N 55°18' E 018°56'0 0.4
2014-Jul-30 04:33N 55°18' E 018°55'0 0.5
2014-Jul-30 03:33N 55°17' E 018°55'1 0.6
2014-Jul-30 02:33N 55°17' E 018°55'1 0.6
2014-Jul-30 01:33N 55°16' E 018°54'1 0.7
2014-Jul-30 00:33N 55°16' E 018°54'1 0.6
2014-Jul-29 23:33N 55°15' E 018°54'1 0.7
2014-Jul-29 22:33N 55°14' E 018°55'1 0.7
2014-Jul-29 21:33N 55°14' E 018°55'1 0.5
2014-Jul-29 20:33N 55°13' E 018°56'0 0.4
2014-Jul-29 19:33N 55°13' E 018°56'0 0.4
2014-Jul-29 18:33N 55°13' E 018°57'0 0.3
2014-Jul-29 17:33N 55°13' E 018°58'0 0.3
2014-Jul-29 16:33N 55°13' E 018°58'0 0.2
2014-Jul-29 15:33N 55°13' E 018°58'0 0.1
2014-Jul-29 14:33N 55°13' E 018°58'0 0.1
2014-Jul-29 13:33N 55°13' E 018°58'0 0.2
2014-Jul-29 12:33N 55°13' E 018°58'0 0.3
2014-Jul-29 11:33N 55°13' E 018°57'0 0.3
2014-Jul-29 10:33N 55°13' E 018°57'0 0.2
2014-Jul-29 09:33N 55°12' E 018°57'0 0.2
2014-Jul-29 08:33N 55°12' E 018°57'1 0.5
2014-Jul-29 06:33N 55°11' E 018°57'0 0.4
2014-Jul-29 05:33N 55°11' E 018°58'0 0.4
2014-Jul-29 04:33N 55°11' E 018°58'0 0.3
2014-Jul-29 03:33N 55°11' E 018°59'0 0.3
2014-Jul-29 02:33N 55°11' E 018°59'0 0.2
2014-Jul-29 01:33N 55°11' E 018°59'0 0.1
2014-Jul-29 00:33N 55°11' E 018°59'0 0.1
2014-Jul-28 23:33N 55°11' E 018°59'0 0.2
2014-Jul-28 22:33N 55°11' E 018°59'0 0.2
2014-Jul-28 21:33N 55°11' E 018°59'0 0.2
2014-Jul-28 20:33N 55°11' E 018°59'0 0.3
2014-Jul-28 19:33N 55°10' E 018°59'0 0.3
2014-Jul-28 18:33N 55°10' E 018°59'0 0.2
2014-Jul-28 17:33N 55°10' E 018°59'0 0.2
2014-Jul-28 16:33N 55°10' E 018°59'0 0.3
2014-Jul-28 15:33N 55°10' E 018°60'0 0.4
2014-Jul-28 14:33N 55°09' E 019°00'0 0.4
2014-Jul-28 13:33N 55°09' E 019°01'0 0.3
2014-Jul-28 12:33N 55°10' E 019°01'0 0.2
2014-Jul-28 11:33N 55°10' E 019°02'0 0.2
2014-Jul-28 10:33N 55°10' E 019°02'0 0.0
2014-Jul-28 09:33N 55°10' E 019°02'0 0.2
2014-Jul-28 08:33N 55°10' E 019°01'0 0.3
2014-Jul-28 07:33N 55°10' E 019°01'0 0.3
2014-Jul-28 06:33N 55°09' E 019°01'1 0.5
2014-Jul-28 05:33N 55°10' E 019°01'7 7.2
2014-Jul-28 04:33N 55°17' E 019°01'1010.2
2014-Jul-28 03:33N 55°27' E 019°02'1110.6
2014-Jul-28 02:33N 55°37' E 019°07'1110.8
2014-Jul-28 01:33N 55°48' E 019°12'3510.5
2014-Jul-27 22:12N 56°22' E 019°29'810.8
2014-Jul-27 21:30N 56°29' E 019°31'2410.9
2014-Jul-27 19:17N 56°53' E 019°37'811.0
2014-Jul-27 18:33N 57°01' E 019°39'1111.0
2014-Jul-27 17:33N 57°12' E 019°42'8811.0
2014-Jul-27 09:33N 58°31' E 020°53'1313.4
2014-Jul-27 08:33N 58°43' E 021°06'1312.6
2014-Jul-27 07:33N 58°54' E 021°19'1110.7
2014-Jul-27 06:33N 59°03' E 021°30'1510.4
2014-Jul-27 05:05N 59°14' E 021°50'910.6
2014-Jul-27 04:12N 59°20' E 022°04'710.6
2014-Jul-27 03:33N 59°24' E 022°15'1110.5
2014-Jul-27 02:33N 59°30' E 022°32'1110.6
2014-Jul-27 01:33N 59°33' E 022°52'1111.0
2014-Jul-27 00:33N 59°37' E 023°12'1110.8
2014-Jul-26 23:33N 59°39' E 023°33'1110.9
2014-Jul-26 22:33N 59°42' E 023°54'1110.8
2014-Jul-26 21:33N 59°45' E 024°14'1110.6
2014-Jul-26 20:33N 59°48' E 024°35'1010.5
2014-Jul-26 19:33N 59°51' E 024°55'1110.7
2014-Jul-26 18:33N 59°52' E 025°16'1110.7
2014-Jul-26 17:33N 59°53' E 025°37'1110.5
2014-Jul-26 16:33N 59°56' E 025°58'1110.8
2014-Jul-26 15:33N 59°59' E 026°18'1010.4
2014-Jul-26 14:33N 60°01' E 026°38'1110.5
2014-Jul-26 13:33N 59°60' E 026°59'1010.0
2014-Jul-26 12:33N 60°04' E 027°18'1110.6
2014-Jul-26 11:33N 60°09' E 027°36'10 9.5
2014-Jul-26 10:33N 60°11' E 027°55'2010.0
2014-Jul-26 08:33N 60°09' E 028°34'4 0.1
2014-Jul-25 03:22N 60°05' E 028°37'26 1.0
2014-Jul-24 01:24N 60°10' E 027°45'910.2
2014-Jul-24 00:32N 60°06' E 027°30'1010.1
2014-Jul-23 23:33N 60°01' E 027°13'10 9.9
2014-Jul-23 22:33N 59°58' E 026°54'1110.5
2014-Jul-23 21:33N 59°58' E 026°33'1110.8
2014-Jul-23 20:33N 59°56' E 026°12'1110.7
2014-Jul-23 19:30N 59°53' E 025°50'4610.5
2014-Jul-23 15:05N 59°43' E 024°20'610.4
2014-Jul-23 14:33N 59°41' E 024°10'1010.1
2014-Jul-23 13:33N 59°38' E 023°51'1010.1
2014-Jul-23 12:32N 59°35' E 023°32'1210.8
2014-Jul-23 11:26N 59°31' E 023°10'4210.3
2014-Jul-23 07:24N 59°10' E 021°59'8 9.8
2014-Jul-23 06:33N 59°05' E 021°46'10 9.7
2014-Jul-23 05:33N 58°57' E 021°36'1110.9
2014-Jul-23 04:33N 58°48' E 021°24'1111.0
2014-Jul-23 03:33N 58°39' E 021°12'1510.2
2014-Jul-23 02:04N 58°26' E 020°56'510.4
2014-Jul-23 01:33N 58°22' E 020°50'1010.1
2014-Jul-23 00:33N 58°13' E 020°40'1010.0
2014-Jul-22 23:33N 58°05' E 020°29'10 9.6
2014-Jul-22 22:33N 57°56' E 020°20'10 9.7
2014-Jul-22 21:33N 57°48' E 020°13'10 9.7
2014-Jul-22 20:33N 57°39' E 020°05'10 9.8
2014-Jul-22 19:33N 57°30' E 019°58'10 9.7
2014-Jul-22 18:33N 57°21' E 019°51'10 9.6
2014-Jul-22 17:33N 57°12' E 019°42'9 9.4
2014-Jul-22 16:33N 57°04' E 019°34'9 9.4
2014-Jul-22 15:33N 56°56' E 019°26'9 9.4
2014-Jul-22 14:33N 56°48' E 019°17'9 9.4
2014-Jul-22 13:33N 56°39' E 019°09'9 9.4
2014-Jul-22 12:33N 56°31' E 019°01'9 9.4
2014-Jul-22 11:33N 56°23' E 018°53'9 9.0
2014-Jul-22 10:33N 56°17' E 018°41'9 9.5
2014-Jul-22 09:33N 56°12' E 018°27'10 9.6
2014-Jul-22 08:33N 56°07' E 018°12'10 9.8
2014-Jul-22 07:33N 56°01' E 017°57'1010.0
2014-Jul-22 06:33N 55°56' E 017°42'10 9.9
2014-Jul-22 05:33N 55°53' E 017°25'10 9.7
2014-Jul-22 04:33N 55°51' E 017°08'10 9.7
2014-Jul-22 03:33N 55°49' E 016°52'  
Track history (hours):
 
Tides and Currents Weather Stations Pressure Air Temp Water Temp Dewpoint Dewpoint Depression Visibility Wind Speed Wind Dir Waves Ship Positions

Isabella

Last reported at 2014-Aug-01 03:32 UTC. Time now 2014-Aug-01 03:48 UTC.
Position N 54°27' E 018°53'.

Length 244 m; draft 15 m.

Type: Tanker. MMSI: 215545000.

Date/timePositionNaut miles runAvg speedWind from/ knotsBaromVisibWave heightAir tempDewpointWater temp
2014-Aug-01 03:32N 54°27' E 018°53'0 0.0
2014-Aug-01 02:32N 54°27' E 018°53'0 0.1
2014-Aug-01 01:32N 54°27' E 018°53'0 0.0
2014-Aug-01 00:32N 54°27' E 018°53'0 0.0
2014-Jul-31 23:32N 54°28' E 018°53'0 0.1
2014-Jul-31 22:32N 54°27' E 018°53'0 0.4
2014-Jul-31 21:33N 54°27' E 018°53'7 7.2
2014-Jul-31 20:33N 54°33' E 019°01'10 9.8
2014-Jul-31 19:33N 54°43' E 019°03'9 8.9
2014-Jul-31 18:33N 54°52' E 019°04'9 8.6
2014-Jul-31 17:33N 55°00' E 019°06'0 0.3
2014-Jul-31 16:33N 55°00' E 019°06'0 0.2
2014-Jul-31 15:33N 55°00' E 019°06'0 0.2
2014-Jul-31 14:33N 55°00' E 019°06'0 0.3
2014-Jul-31 13:33N 55°01' E 019°06'0 0.3
2014-Jul-31 12:33N 55°01' E 019°06'0 0.4
2014-Jul-31 11:29N 55°01' E 019°05'0 0.4
2014-Jul-31 10:33N 55°02' E 019°05'0 0.4
2014-Jul-31 09:33N 55°02' E 019°04'0 0.4
2014-Jul-31 08:33N 55°02' E 019°04'0 0.4
2014-Jul-31 07:33N 55°02' E 019°03'0 0.4
2014-Jul-31 06:33N 55°02' E 019°03'0 0.2
2014-Jul-31 05:33N 55°02' E 019°02'0 0.2
2014-Jul-31 04:26N 55°02' E 019°02'0 0.1
2014-Jul-31 03:33N 55°02' E 019°02'0 0.1
2014-Jul-31 02:33N 55°02' E 019°02'0 0.3
2014-Jul-31 01:33N 55°02' E 019°02'0 0.4
2014-Jul-31 00:33N 55°03' E 019°02'0 0.3
2014-Jul-30 23:33N 55°03' E 019°02'0 0.3
2014-Jul-30 22:33N 55°03' E 019°02'0 0.3
2014-Jul-30 21:33N 55°03' E 019°01'0 0.3
2014-Jul-30 20:33N 55°03' E 019°01'0 0.4
2014-Jul-30 19:33N 55°03' E 019°00'0 0.3
2014-Jul-30 18:33N 55°03' E 018°60'0 0.5
2014-Jul-30 17:33N 55°03' E 018°59'0 0.4
2014-Jul-30 16:33N 55°02' E 018°59'1 0.5
2014-Jul-30 15:33N 55°02' E 018°59'1 0.5
2014-Jul-30 14:33N 55°01' E 018°59'0 0.5
2014-Jul-30 13:33N 55°01' E 018°60'0 0.4
2014-Jul-30 12:33N 55°01' E 019°00'8 7.8
2014-Jul-30 11:33N 54°53' E 019°02'1010.2
2014-Jul-30 10:33N 55°03' E 018°59'2 1.8
2014-Jul-30 09:33N 55°05' E 018°59'6 5.8
2014-Jul-30 08:33N 55°11' E 018°58'7 7.4
2014-Jul-30 07:33N 55°18' E 018°56'0 0.2
2014-Jul-30 06:33N 55°18' E 018°56'0 0.3
2014-Jul-30 05:33N 55°18' E 018°56'0 0.4
2014-Jul-30 04:33N 55°18' E 018°55'0 0.5
2014-Jul-30 03:33N 55°17' E 018°55'1 0.6
2014-Jul-30 02:33N 55°17' E 018°55'1 0.6
2014-Jul-30 01:33N 55°16' E 018°54'1 0.7
2014-Jul-30 00:33N 55°16' E 018°54'1 0.6
2014-Jul-29 23:33N 55°15' E 018°54'1 0.7
2014-Jul-29 22:33N 55°14' E 018°55'1 0.7
2014-Jul-29 21:33N 55°14' E 018°55'1 0.5
2014-Jul-29 20:33N 55°13' E 018°56'0 0.4
2014-Jul-29 19:33N 55°13' E 018°56'0 0.4
2014-Jul-29 18:33N 55°13' E 018°57'0 0.3
2014-Jul-29 17:33N 55°13' E 018°58'0 0.3
2014-Jul-29 16:33N 55°13' E 018°58'0 0.2
2014-Jul-29 15:33N 55°13' E 018°58'0 0.1
2014-Jul-29 14:33N 55°13' E 018°58'0 0.1
2014-Jul-29 13:33N 55°13' E 018°58'0 0.2
2014-Jul-29 12:33N 55°13' E 018°58'0 0.3
2014-Jul-29 11:33N 55°13' E 018°57'0 0.3
2014-Jul-29 10:33N 55°13' E 018°57'0 0.2
2014-Jul-29 09:33N 55°12' E 018°57'0 0.2
2014-Jul-29 08:33N 55°12' E 018°57'1 0.5
2014-Jul-29 06:33N 55°11' E 018°57'0 0.4
2014-Jul-29 05:33N 55°11' E 018°58'0 0.4
2014-Jul-29 04:33N 55°11' E 018°58'0 0.3
2014-Jul-29 03:33N 55°11' E 018°59'0 0.3
2014-Jul-29 02:33N 55°11' E 018°59'0 0.2
2014-Jul-29 01:33N 55°11' E 018°59'0 0.1
2014-Jul-29 00:33N 55°11' E 018°59'0 0.1
2014-Jul-28 23:33N 55°11' E 018°59'0 0.2
2014-Jul-28 22:33N 55°11' E 018°59'0 0.2
2014-Jul-28 21:33N 55°11' E 018°59'0 0.2
2014-Jul-28 20:33N 55°11' E 018°59'0 0.3
2014-Jul-28 19:33N 55°10' E 018°59'0 0.3
2014-Jul-28 18:33N 55°10' E 018°59'0 0.2
2014-Jul-28 17:33N 55°10' E 018°59'0 0.2
2014-Jul-28 16:33N 55°10' E 018°59'0 0.3
2014-Jul-28 15:33N 55°10' E 018°60'0 0.4
2014-Jul-28 14:33N 55°09' E 019°00'0 0.4
2014-Jul-28 13:33N 55°09' E 019°01'0 0.3
2014-Jul-28 12:33N 55°10' E 019°01'0 0.2
2014-Jul-28 11:33N 55°10' E 019°02'0 0.2
2014-Jul-28 10:33N 55°10' E 019°02'0 0.0
2014-Jul-28 09:33N 55°10' E 019°02'0 0.2
2014-Jul-28 08:33N 55°10' E 019°01'0 0.3
2014-Jul-28 07:33N 55°10' E 019°01'0 0.3
2014-Jul-28 06:33N 55°09' E 019°01'1 0.5
2014-Jul-28 05:33N 55°10' E 019°01'7 7.2
2014-Jul-28 04:33N 55°17' E 019°01'1010.2
2014-Jul-28 03:33N 55°27' E 019°02'1110.6
2014-Jul-28 02:33N 55°37' E 019°07'1110.8
2014-Jul-28 01:33N 55°48' E 019°12'3510.5
2014-Jul-27 22:12N 56°22' E 019°29'810.8
2014-Jul-27 21:30N 56°29' E 019°31'2410.9
2014-Jul-27 19:17N 56°53' E 019°37'811.0
2014-Jul-27 18:33N 57°01' E 019°39'1111.0
2014-Jul-27 17:33N 57°12' E 019°42'8811.0
2014-Jul-27 09:33N 58°31' E 020°53'1313.4
2014-Jul-27 08:33N 58°43' E 021°06'1312.6
2014-Jul-27 07:33N 58°54' E 021°19'1110.7
2014-Jul-27 06:33N 59°03' E 021°30'1510.4
2014-Jul-27 05:05N 59°14' E 021°50'910.6
2014-Jul-27 04:12N 59°20' E 022°04'710.6
2014-Jul-27 03:33N 59°24' E 022°15'1110.5
2014-Jul-27 02:33N 59°30' E 022°32'1110.6
2014-Jul-27 01:33N 59°33' E 022°52'1111.0
2014-Jul-27 00:33N 59°37' E 023°12'1110.8
2014-Jul-26 23:33N 59°39' E 023°33'1110.9
2014-Jul-26 22:33N 59°42' E 023°54'1110.8
2014-Jul-26 21:33N 59°45' E 024°14'1110.6
2014-Jul-26 20:33N 59°48' E 024°35'1010.5
2014-Jul-26 19:33N 59°51' E 024°55'1110.7
2014-Jul-26 18:33N 59°52' E 025°16'1110.7
2014-Jul-26 17:33N 59°53' E 025°37'1110.5
2014-Jul-26 16:33N 59°56' E 025°58'1110.8
2014-Jul-26 15:33N 59°59' E 026°18'1010.4
2014-Jul-26 14:33N 60°01' E 026°38'1110.5
2014-Jul-26 13:33N 59°60' E 026°59'1010.0
2014-Jul-26 12:33N 60°04' E 027°18'1110.6
2014-Jul-26 11:33N 60°09' E 027°36'10 9.5
2014-Jul-26 10:33N 60°11' E 027°55'2010.0
2014-Jul-26 08:33N 60°09' E 028°34'4 0.1
2014-Jul-25 03:22N 60°05' E 028°37'26 1.0
2014-Jul-24 01:24N 60°10' E 027°45'910.2
2014-Jul-24 00:32N 60°06' E 027°30'1010.1
2014-Jul-23 23:33N 60°01' E 027°13'10 9.9
2014-Jul-23 22:33N 59°58' E 026°54'1110.5
2014-Jul-23 21:33N 59°58' E 026°33'1110.8
2014-Jul-23 20:33N 59°56' E 026°12'1110.7
2014-Jul-23 19:30N 59°53' E 025°50'4610.5
2014-Jul-23 15:05N 59°43' E 024°20'610.4
2014-Jul-23 14:33N 59°41' E 024°10'1010.1
2014-Jul-23 13:33N 59°38' E 023°51'1010.1
2014-Jul-23 12:32N 59°35' E 023°32'1210.8
2014-Jul-23 11:26N 59°31' E 023°10'4210.3
2014-Jul-23 07:24N 59°10' E 021°59'8 9.8
2014-Jul-23 06:33N 59°05' E 021°46'10 9.7
2014-Jul-23 05:33N 58°57' E 021°36'1110.9
2014-Jul-23 04:33N 58°48' E 021°24'1111.0
2014-Jul-23 03:33N 58°39' E 021°12'1510.2
2014-Jul-23 02:04N 58°26' E 020°56'510.4
2014-Jul-23 01:33N 58°22' E 020°50'1010.1
2014-Jul-23 00:33N 58°13' E 020°40'1010.0
2014-Jul-22 23:33N 58°05' E 020°29'10 9.6
2014-Jul-22 22:33N 57°56' E 020°20'10 9.7
2014-Jul-22 21:33N 57°48' E 020°13'10 9.7
2014-Jul-22 20:33N 57°39' E 020°05'10 9.8
2014-Jul-22 19:33N 57°30' E 019°58'10 9.7
2014-Jul-22 18:33N 57°21' E 019°51'10 9.6
2014-Jul-22 17:33N 57°12' E 019°42'9 9.4
2014-Jul-22 16:33N 57°04' E 019°34'9 9.4
2014-Jul-22 15:33N 56°56' E 019°26'9 9.4
2014-Jul-22 14:33N 56°48' E 019°17'9 9.4
2014-Jul-22 13:33N 56°39' E 019°09'9 9.4
2014-Jul-22 12:33N 56°31' E 019°01'9 9.4
2014-Jul-22 11:33N 56°23' E 018°53'9 9.0
2014-Jul-22 10:33N 56°17' E 018°41'9 9.5
2014-Jul-22 09:33N 56°12' E 018°27'10 9.6
2014-Jul-22 08:33N 56°07' E 018°12'10 9.8
2014-Jul-22 07:33N 56°01' E 017°57'1010.0
2014-Jul-22 06:33N 55°56' E 017°42'10 9.9
2014-Jul-22 05:33N 55°53' E 017°25'10 9.7
2014-Jul-22 04:33N 55°51' E 017°08'10 9.7
2014-Jul-22 03:33N 55°49' E 016°52'  

Dump ship's entire track history